Flight Track Log - Related Links

Times and Time Zones

All times are in EDT time to prevent confusion due to time zone crossing. See the CHH7748 flight status page for this flight to view local times or setup timezone preferences in your user account.

Time Position Orientation Groundspeed Altitude Reporting Facility
EDT Latitude Longitude Course Direction KTS MPH feet Rate Location/Type
Sun 11:24:00 PM 39.6086 76.1631 59° Northeast  Level Estimated
Sun 11:25:00 PM 39.6737 76.3059 59° Northeast  Level Estimated
Sun 11:26:00 PM 39.7387 76.4490 59° Northeast  Level Estimated
Sun 11:27:00 PM 39.8035 76.5923 59° Northeast  Level Estimated
Sun 11:28:00 PM 39.8681 76.7359 60° Northeast  Level Estimated
Sun 11:29:00 PM 39.9325 76.8798 60° Northeast  Level Estimated
Sun 11:30:00 PM 39.9968 77.0239 60° Northeast  Level Estimated
Sun 11:31:00 PM 40.0609 77.1683 60° Northeast  Level Estimated
Sun 11:32:00 PM 40.1248 77.3130 60° Northeast  Level Estimated
Sun 11:33:00 PM 40.1885 77.4580 60° Northeast  Level Estimated
Sun 11:34:00 PM 40.2520 77.6032 60° Northeast  Level Estimated
Sun 11:35:00 PM 40.3154 77.7487 60° Northeast  Level Estimated
Sun 11:36:00 PM 40.3786 77.8945 60° Northeast  Level Estimated
Sun 11:37:00 PM 40.4416 78.0405 60° Northeast  Level Estimated
Sun 11:38:00 PM 40.5044 78.1868 61° Northeast  Level Estimated
Sun 11:39:00 PM 40.5670 78.3334 61° Northeast  Level Estimated
Sun 11:40:00 PM 40.6295 78.4803 61° Northeast  Level Estimated
Sun 11:41:00 PM 40.6917 78.6274 61° Northeast  Level Estimated
Sun 11:42:00 PM 40.7538 78.7748 61° Northeast  Level Estimated
Sun 11:43:00 PM 40.8157 78.9225 61° Northeast  Level Estimated
Sun 11:44:00 PM 40.8773 79.0705 61° Northeast  Level Estimated
Sun 11:45:00 PM 40.9389 79.2187 61° Northeast  Level Estimated
Sun 11:46:00 PM 41.0002 79.3673 61° Northeast  Level Estimated
Sun 11:47:00 PM 41.0613 79.5161 61° Northeast  Level Estimated
Sun 11:48:00 PM 41.1222 79.6651 61° Northeast  Level Estimated
Sun 11:49:00 PM 41.1829 79.8145 62° Northeast  Level Estimated
Sun 11:50:00 PM 41.2435 79.9641 62° Northeast  Level Estimated
Sun 11:51:00 PM 41.3038 80.1140 62° Northeast  Level Estimated
Sun 11:52:00 PM 41.3640 80.2642 62° Northeast  Level Estimated
Sun 11:53:00 PM 41.4240 80.4146 62° Northeast  Level Estimated
Sun 11:54:00 PM 41.4837 80.5654 62° Northeast  Level Estimated
Sun 11:55:00 PM 41.5433 80.7164 62° Northeast  Level Estimated
Sun 11:56:00 PM 41.6026 80.8677 62° Northeast  Level Estimated
Sun 11:57:00 PM 41.6618 81.0192 62° Northeast  Level Estimated
Sun 11:58:00 PM 41.7208 81.1711 62° Northeast  Level Estimated
Sun 11:59:00 PM 41.7795 81.3232 63° Northeast  Level Estimated
Mon 12:00:00 AM 41.8381 81.4756 63° Northeast  Level Estimated
Mon 12:01:00 AM 41.8965 81.6283 63° Northeast  Level Estimated
Mon 12:02:00 AM 41.9547 81.7812 63° Northeast  Level Estimated
Mon 12:03:00 AM 42.0126 81.9345 63° Northeast  Level Estimated
Mon 12:04:00 AM 42.0704 82.0880 63° Northeast  Level Estimated
Mon 12:05:00 AM 42.1279 82.2418 63° Northeast  Level Estimated
Mon 12:06:00 AM 42.1853 82.3959 63° Northeast  Level Estimated
Mon 12:07:00 AM 42.2424 82.5502 63° Northeast  Level Estimated
Mon 12:08:00 AM 42.2993 82.7049 63° Northeast  Level Estimated
Mon 12:09:00 AM 42.3560 82.8598 64° Northeast  Level Estimated
Mon 12:10:00 AM 42.4126 83.0150 64° Northeast  Level Estimated
Mon 12:11:00 AM 42.4689 83.1704 64° Northeast  Level Estimated
Mon 12:12:00 AM 42.5249 83.3262 64° Northeast  Level Estimated
Mon 12:13:00 AM 42.5808 83.4822 64° Northeast  Level Estimated
Mon 12:14:00 AM 42.6365 83.6385 64° Northeast  Level Estimated
Mon 12:15:00 AM 42.6920 83.7951 64° Northeast  Level Estimated
Mon 12:16:00 AM 42.7472 83.9520 64° Northeast  Level Estimated
Mon 12:17:00 AM 42.8022 84.1091 64° Northeast  Level Estimated
Mon 12:18:00 AM 42.8570 84.2666 65° Northeast  Level Estimated
Mon 12:19:00 AM 42.9116 84.4243 65° Northeast  Level Estimated
Mon 12:20:00 AM 42.9660 84.5823 65° Northeast  Level Estimated
Mon 12:21:00 AM 43.0202 84.7405 65° Northeast  Level Estimated
Mon 12:22:00 AM 43.0741 84.8991 65° Northeast  Level Estimated
Mon 12:23:00 AM 43.1279 85.0579 65° Northeast  Level Estimated
Mon 12:24:00 AM 43.1814 85.2170 65° Northeast  Level Estimated
Mon 12:25:00 AM 43.2347 85.3764 65° Northeast  Level Estimated
Mon 12:26:00 AM 43.2877 85.5360 65° Northeast  Level Estimated
Mon 12:27:00 AM 43.3406 85.6960 66° East  Level Estimated
Mon 12:28:00 AM 43.3932 85.8562 66° East  Level Estimated
Mon 12:29:00 AM 43.4456 86.0167 66° East  Level Estimated
Mon 12:30:00 AM 43.4977 86.1775 66° East  Level Estimated
Mon 12:31:00 AM 43.5497 86.3385 66° East  Level Estimated
Mon 12:32:00 AM 43.6014 86.4998 66° East  Level Estimated
Mon 12:33:00 AM 43.6529 86.6614 66° East  Level Estimated
Mon 12:34:00 AM 43.7042 86.8233 66° East  Level Estimated
Mon 12:35:00 AM 43.7552 86.9855 66° East  Level Estimated
Mon 12:36:00 AM 43.8060 87.1479 67° East  Level Estimated
Mon 12:37:00 AM 43.8566 87.3106 67° East  Level Estimated
Mon 12:38:00 AM 43.9069 87.4736 67° East  Level Estimated
Mon 12:39:00 AM 43.9071 87.4742 66° East  Level Estimated
Mon 12:40:00 AM 43.9071 87.4742 144° Southeast  Level Estimated
Mon 12:41:00 AM 43.9071 87.4742 144° Southeast  Level Estimated
Mon 12:42:00 AM 43.9071 87.4742 144° Southeast  Level Estimated
Mon 12:43:00 AM 43.9071 87.4742 144° Southeast  Level Estimated
Mon 12:44:00 AM 43.9071 87.4742 144° Southeast  Level Estimated
Mon 12:45:00 AM 43.9071 87.4742 144° Southeast  Level Estimated
Mon 12:46:00 AM 43.9071 87.4742 144° Southeast  Level Estimated
Mon 12:47:00 AM 43.9071 87.4742 144° Southeast  Level Estimated
Mon 12:48:00 AM 43.9071 87.4742 144° Southeast  Level Estimated
Mon 12:49:00 AM 43.9071 87.4742 144° Southeast  Level Estimated
Mon 12:50:00 AM 43.9071 87.4742 144° Southeast  Level Estimated
Mon 12:51:00 AM 43.9071 87.4742 144° Southeast  Level Estimated
Mon 12:52:00 AM 43.9071 87.4742 144° Southeast  Level Estimated
Mon 12:53:00 AM 43.9071 87.4742 144° Southeast  Level Estimated
Mon 12:54:00 AM 43.9071 87.4742 144° Southeast  Level Estimated

Login

Don't have an account? Register now (free) for customized features, flight alerts, and more!